Time;durP1;ratioP1;P1;durP2;ratioP2;P2;SDS_P1;SDS_P2;PMS_P1;PMS_P2;Temp;Humidity;BMP_temperature;BMP_pressure;BME280_temperature;BME280_humidity;BME280_pressure;Samples;Min_cycle;Max_cycle;Signal;HPM_P1;HPM_P2
2022/10/08 00:00:49;;;;;;;11.90;2.88;;;12.50;99.90;;;;;;6249165;22;20388;-84
2022/10/08 00:03:16;;;;;;;11.65;2.95;;;12.50;99.90;;;;;;6249200;22;20069;-84
2022/10/08 00:05:42;;;;;;;11.40;2.80;;;12.50;99.90;;;;;;6249379;22;20043;-84
2022/10/08 00:08:08;;;;;;;12.10;2.97;;;12.50;99.90;;;;;;6275623;22;20018;-84
2022/10/08 00:10:35;;;;;;;14.20;3.33;;;12.90;99.90;;;;;;6249152;22;20332;-84
2022/10/08 00:13:02;;;;;;;14.55;3.78;;;13.30;99.90;;;;;;6276699;22;20019;-84
2022/10/08 00:15:28;;;;;;;11.93;3.05;;;12.50;99.90;;;;;;6275435;22;20011;-84
2022/10/08 00:17:54;;;;;;;13.52;3.17;;;12.50;99.90;;;;;;6276423;22;20047;-84
2022/10/08 00:20:20;;;;;;;12.98;2.97;;;13.50;99.90;;;;;;6276110;22;20012;-84
2022/10/08 00:22:47;;;;;;;14.27;3.00;;;12.50;99.90;;;;;;6248461;22;20026;-84
2022/10/08 00:25:13;;;;;;;12.70;2.72;;;12.50;99.90;;;;;;6248999;22;20091;-84
2022/10/08 00:27:39;;;;;;;12.73;2.97;;;12.50;99.90;;;;;;6276807;22;20015;-84
2022/10/08 00:30:06;;;;;;;14.07;3.08;;;12.50;99.90;;;;;;6248672;22;20020;-84
2022/10/08 00:32:31;;;;;;;12.68;3.17;;;12.50;99.90;;;;;;6276839;22;20016;-84
2022/10/08 00:34:57;;;;;;;17.20;3.88;;;12.50;99.90;;;;;;6249247;22;20095;-84
2022/10/08 00:37:24;;;;;;;13.68;3.35;;;12.50;99.90;;;;;;6248084;22;20011;-84
2022/10/08 00:39:50;;;;;;;11.60;3.60;;;12.60;99.90;;;;;;6276505;22;20460;-84
2022/10/08 00:42:16;;;;;;;10.65;3.28;;;12.40;99.90;;;;;;6276658;22;20339;-84
2022/10/08 00:44:44;;;;;;;10.65;2.97;;;12.30;99.90;;;;;;6275864;22;20459;-84
2022/10/08 00:47:32;;;;;;;12.90;3.25;;;12.20;99.90;;;;;;6248915;22;20015;-84
2022/10/08 00:50:24;;;;;;;11.48;3.00;;;12.10;99.90;;;;;;6248478;22;20018;-84
2022/10/08 00:52:55;;;;;;;11.13;3.20;;;12.00;99.90;;;;;;6276422;22;20455;-84
2022/10/08 00:55:25;;;;;;;12.32;3.50;;;11.90;99.90;;;;;;6248647;22;20015;-84
2022/10/08 00:57:51;;;;;;;12.15;3.58;;;11.90;99.90;;;;;;6248067;22;20016;-84
2022/10/08 01:00:22;;;;;;;19.65;4.00;;;11.80;99.90;;;;;;6248733;22;20448;-84
2022/10/08 01:02:47;;;;;;;14.07;4.22;;;11.80;99.90;;;;;;6249063;22;20019;-84
2022/10/08 01:05:16;;;;;;;13.73;3.88;;;11.70;99.90;;;;;;6247844;22;20011;-84
2022/10/08 01:08:00;;;;;;;14.35;4.47;;;11.70;99.90;;;;;;6249162;22;20011;-84
2022/10/08 01:11:04;;;;;;;18.60;4.30;;;11.70;99.90;;;;;;6248491;22;20062;-84
2022/10/08 01:13:40;;;;;;;15.80;4.60;;;11.70;99.90;;;;;;6268243;22;20011;-84
2022/10/08 01:16:09;;;;;;;12.15;3.83;;;11.60;99.90;;;;;;6248668;22;20015;-84
2022/10/08 01:18:50;;;;;;;15.38;4.20;;;11.60;99.90;;;;;;6247858;22;20077;-84
2022/10/08 01:21:39;;;;;;;14.43;4.00;;;11.50;99.90;;;;;;6248561;22;20008;-84
2022/10/08 01:24:21;;;;;;;14.13;4.40;;;11.60;99.90;;;;;;6248705;22;20016;-85
2022/10/08 01:27:03;;;;;;;14.65;4.80;;;11.50;99.90;;;;;;6247623;22;20012;-84
2022/10/08 01:29:43;;;;;;;13.20;4.72;;;11.50;99.90;;;;;;6248551;22;20098;-84
2022/10/08 01:32:20;;;;;;;13.40;4.78;;;11.50;99.90;;;;;;6274966;22;20078;-84
2022/10/08 01:34:54;;;;;;;16.02;5.00;;;11.40;99.90;;;;;;6248922;22;20062;-84
2022/10/08 01:37:25;;;;;;;12.00;4.65;;;11.40;99.90;;;;;;6275712;22;20019;-84
2022/10/08 01:39:58;;;;;;;12.48;4.57;;;11.40;99.90;;;;;;6248045;22;20023;-84
2022/10/08 01:42:26;;;;;;;9.88;3.50;;;11.40;99.90;;;;;;6247950;22;20026;-84
2022/10/08 01:45:00;;;;;;;15.25;4.80;;;11.40;99.90;;;;;;6276151;22;20086;-84
2022/10/08 01:47:27;;;;;;;16.13;4.43;;;11.40;99.90;;;;;;6275022;22;20242;-84
2022/10/08 01:50:06;;;;;;;13.45;3.60;;;11.90;99.90;;;;;;6250590;22;20019;-84
2022/10/08 01:52:38;;;;;;;16.50;4.20;;;11.40;99.90;;;;;;6248945;22;20016;-85
2022/10/08 01:55:11;;;;;;;10.82;3.90;;;11.40;99.90;;;;;;6242504;23;20023;-85
2022/10/08 01:57:38;;;;;;;11.55;3.33;;;11.40;99.90;;;;;;6243668;23;20023;-84
2022/10/08 02:00:08;;;;;;;12.07;3.97;;;11.50;99.90;;;;;;6242642;23;20162;-85
2022/10/08 02:02:34;;;;;;;9.38;3.38;;;11.40;99.90;;;;;;6243892;23;20016;-85
2022/10/08 02:04:59;;;;;;;8.98;3.65;;;11.40;99.90;;;;;;6245100;23;20008;-85
2022/10/08 02:07:41;;;;;;;11.63;3.95;;;11.50;99.90;;;;;;6242243;23;20876;-84
2022/10/08 02:10:14;;;;;;;11.05;4.20;;;11.50;99.90;;;;;;6243139;23;20310;-85
2022/10/08 02:12:41;;;;;;;10.38;3.80;;;11.50;99.90;;;;;;6243171;23;20012;-84
2022/10/08 02:15:33;;;;;;;14.82;4.57;;;12.80;99.90;;;;;;6242324;23;20020;-84
2022/10/08 02:18:17;;;;;;;13.15;4.55;;;11.50;99.90;;;;;;6243616;23;20104;-84
2022/10/08 02:20:55;;;;;;;15.38;5.47;;;11.50;99.90;;;;;;6243513;23;20023;-84
2022/10/08 02:23:36;;;;;;;13.13;4.35;;;11.50;99.90;;;;;;6244710;22;20016;-84
2022/10/08 02:26:07;;;;;;;16.38;4.85;;;11.50;99.90;;;;;;6245720;23;20019;-85
2022/10/08 02:28:32;;;;;;;14.65;4.40;;;11.50;99.90;;;;;;6244349;23;20023;-84
2022/10/08 02:31:05;;;;;;;15.35;4.95;;;11.50;99.90;;;;;;6247498;23;20012;-84
2022/10/08 02:33:39;;;;;;;13.52;4.70;;;11.50;99.90;;;;;;6245176;23;20019;-84
2022/10/08 02:36:07;;;;;;;13.10;4.30;;;11.50;99.90;;;;;;6246316;22;20016;-84
2022/10/08 02:38:37;;;;;;;13.82;4.43;;;11.50;99.90;;;;;;6245246;23;20012;-84
2022/10/08 02:41:04;;;;;;;12.63;4.32;;;11.50;99.90;;;;;;6246539;22;20377;-84
2022/10/08 02:43:33;;;;;;;14.35;4.00;;;11.50;99.90;;;;;;6245682;22;20026;-85
2022/10/08 02:46:05;;;;;;;11.57;4.35;;;11.50;99.90;;;;;;6245098;23;20018;-84
2022/10/08 02:48:34;;;;;;;13.10;4.10;;;11.50;99.90;;;;;;6246844;22;20047;-85
2022/10/08 02:51:05;;;;;;;15.48;4.32;;;11.50;99.90;;;;;;6246294;22;20017;-85
2022/10/08 02:53:33;;;;;;;11.13;4.45;;;11.50;99.90;;;;;;6247159;22;20147;-84
2022/10/08 02:56:16;;;;;;;12.27;4.05;;;11.50;99.90;;;;;;6274825;22;20096;-84
2022/10/08 02:58:43;;;;;;;12.85;3.78;;;11.40;99.90;;;;;;6250022;22;20336;-84
2022/10/08 03:01:14;;;;;;;13.90;4.30;;;11.40;99.90;;;;;;6249786;22;20106;-84
2022/10/08 03:03:46;;;;;;;13.38;4.35;;;12.70;99.90;;;;;;6249653;22;20022;-84
2022/10/08 03:06:14;;;;;;;11.13;4.15;;;11.40;99.90;;;;;;6249911;22;20011;-84
2022/10/08 03:08:43;;;;;;;14.40;4.43;;;11.40;99.90;;;;;;6250114;22;20020;-84
2022/10/08 03:11:10;;;;;;;11.73;4.30;;;11.40;99.90;;;;;;6249028;22;20015;-84
2022/10/08 03:13:39;;;;;;;12.50;4.70;;;11.40;99.90;;;;;;6278295;22;20043;-84
2022/10/08 03:16:07;;;;;;;11.65;4.10;;;11.00;99.90;;;;;;6279942;22;20030;-85
2022/10/08 03:18:36;;;;;;;15.02;4.53;;;11.40;99.90;;;;;;6277019;22;20022;-84
2022/10/08 03:21:02;;;;;;;12.40;4.75;;;11.40;99.90;;;;;;6277673;22;20367;-84
2022/10/08 03:23:27;;;;;;;12.85;4.60;;;11.30;99.90;;;;;;6249368;22;20118;-84
2022/10/08 03:25:53;;;;;;;14.52;4.45;;;12.10;99.90;;;;;;6249195;22;20448;-84
2022/10/08 03:28:19;;;;;;;12.93;4.10;;;11.40;99.90;;;;;;6249140;22;20023;-84
2022/10/08 03:30:46;;;;;;;11.30;4.47;;;12.60;99.90;;;;;;6250103;22;20020;-84
2022/10/08 03:33:11;;;;;;;11.82;4.63;;;11.30;99.90;;;;;;6249163;22;20016;-84
2022/10/08 03:35:44;;;;;;;13.82;4.10;;;11.40;99.90;;;;;;6276978;22;20012;-84
2022/10/08 03:38:10;;;;;;;12.15;4.35;;;11.30;99.90;;;;;;6249473;22;20379;-84
2022/10/08 03:40:35;;;;;;;13.52;3.80;;;11.90;99.90;;;;;;6248968;22;20049;-84
2022/10/08 03:43:01;;;;;;;11.57;4.00;;;11.40;99.90;;;;;;6249565;22;20106;-84
2022/10/08 03:45:27;;;;;;;9.50;3.97;;;11.30;99.90;;;;;;6275945;22;20020;-84
2022/10/08 03:47:52;;;;;;;15.13;4.68;;;11.10;99.90;;;;;;6250020;22;20344;-84
2022/10/08 03:50:22;;;;;;;13.32;3.78;;;11.10;99.90;;;;;;6249295;22;20020;-84
2022/10/08 03:52:47;;;;;;;10.93;3.80;;;11.10;99.90;;;;;;6248934;22;20023;-83
2022/10/08 03:55:16;;;;;;;11.48;3.95;;;10.90;99.90;;;;;;6276404;22;20027;-84
2022/10/08 03:57:45;;;;;;;12.68;3.78;;;10.70;99.90;;;;;;6277118;22;20385;-83
2022/10/08 04:00:11;;;;;;;16.25;4.45;;;10.90;99.90;;;;;;6248632;22;20042;-83
2022/10/08 04:02:37;;;;;;;12.05;4.35;;;10.80;99.90;;;;;;6276693;22;20011;-83
2022/10/08 04:05:03;;;;;;;13.18;3.92;;;10.70;99.90;;;;;;6276180;22;20008;-84
2022/10/08 04:07:28;;;;;;;12.82;4.35;;;10.70;99.90;;;;;;6274919;22;20320;-84
2022/10/08 04:09:54;;;;;;;12.77;4.28;;;10.70;99.90;;;;;;6249578;22;20344;-84
2022/10/08 04:12:20;;;;;;;15.15;4.88;;;10.70;99.90;;;;;;6276568;22;20012;-83
2022/10/08 04:14:45;;;;;;;10.73;3.97;;;10.70;99.90;;;;;;6248418;22;20462;-84
2022/10/08 04:17:11;;;;;;;13.23;4.43;;;10.70;99.90;;;;;;6276124;22;20027;-83
2022/10/08 04:19:36;;;;;;;14.13;4.15;;;10.80;99.90;;;;;;6276862;22;20050;-84
2022/10/08 04:22:02;;;;;;;12.40;4.78;;;10.80;99.90;;;;;;6275880;22;20019;-84
2022/10/08 04:24:27;;;;;;;15.00;4.50;;;10.90;99.90;;;;;;6249211;22;20321;-84
2022/10/08 04:26:56;;;;;;;15.77;5.07;;;10.90;99.90;;;;;;6276511;22;20020;-84
2022/10/08 04:29:22;;;;;;;13.82;4.93;;;10.90;99.90;;;;;;6248059;22;20020;-84
2022/10/08 04:31:47;;;;;;;13.07;4.97;;;11.00;99.90;;;;;;6276699;22;20022;-84
2022/10/08 04:34:13;;;;;;;11.15;4.68;;;11.00;99.90;;;;;;6276474;22;20018;-84
2022/10/08 04:36:39;;;;;;;13.15;5.22;;;11.00;99.90;;;;;;6248336;22;20021;-84
2022/10/08 04:39:05;;;;;;;11.68;4.72;;;11.00;99.90;;;;;;6276840;22;20012;-84
2022/10/08 04:41:30;;;;;;;14.32;5.53;;;11.00;99.90;;;;;;6248621;22;20011;-84
2022/10/08 04:43:59;;;;;;;14.35;5.57;;;11.00;99.90;;;;;;6248578;22;20016;-84
2022/10/08 04:46:25;;;;;;;16.52;5.65;;;11.00;99.90;;;;;;6248913;22;20212;-84
2022/10/08 04:48:53;;;;;;;13.18;5.50;;;11.00;99.90;;;;;;6247725;22;20016;-84
2022/10/08 04:51:21;;;;;;;14.80;5.30;;;11.00;99.90;;;;;;6248348;22;20015;-84
2022/10/08 04:53:47;;;;;;;14.93;5.30;;;11.30;99.90;;;;;;6275960;22;20447;-85
2022/10/08 04:56:18;;;;;;;11.90;5.32;;;11.10;99.90;;;;;;6275150;22;20016;-85
2022/10/08 04:58:44;;;;;;;15.75;5.80;;;11.00;99.90;;;;;;6248339;22;20214;-85
2022/10/08 05:01:12;;;;;;;14.50;4.72;;;11.00;99.90;;;;;;6275446;22;20079;-85
2022/10/08 05:03:40;;;;;;;12.00;4.70;;;11.00;99.90;;;;;;6275182;22;20066;-85
2022/10/08 05:06:06;;;;;;;15.25;4.75;;;11.90;99.90;;;;;;6276117;22;20371;-85
2022/10/08 05:08:33;;;;;;;12.32;4.68;;;11.00;99.90;;;;;;6276488;22;20012;-85
2022/10/08 05:10:59;;;;;;;12.30;4.93;;;11.00;99.90;;;;;;6248273;22;20018;-85
2022/10/08 05:13:25;;;;;;;15.50;4.88;;;11.10;99.90;;;;;;6248460;22;20098;-85
2022/10/08 05:15:50;;;;;;;15.57;5.20;;;11.10;99.90;;;;;;6248903;22;20331;-85
2022/10/08 05:18:16;;;;;;;11.82;5.00;;;11.00;99.90;;;;;;6247545;22;20019;-85
2022/10/08 05:20:42;;;;;;;15.77;4.80;;;11.00;99.90;;;;;;6248984;22;20043;-85
2022/10/08 05:23:07;;;;;;;12.75;4.63;;;10.90;99.90;;;;;;6248219;22;20043;-85
2022/10/08 05:25:34;;;;;;;14.57;4.47;;;10.90;99.90;;;;;;6248065;22;20020;-85
2022/10/08 05:28:01;;;;;;;13.25;4.43;;;10.90;99.90;;;;;;6248641;22;20110;-85
2022/10/08 05:30:26;;;;;;;11.00;4.97;;;10.80;99.90;;;;;;6249153;22;20030;-85
2022/10/08 05:32:52;;;;;;;13.75;5.00;;;10.70;99.90;;;;;;6247694;22;20016;-85
2022/10/08 05:35:18;;;;;;;14.80;4.53;;;10.70;99.90;;;;;;6275867;22;20237;-85
2022/10/08 05:37:43;;;;;;;15.30;4.68;;;10.80;99.90;;;;;;6248700;22;20020;-86
2022/10/08 05:40:09;;;;;;;17.52;4.50;;;10.80;99.90;;;;;;6247230;22;20027;-85
2022/10/08 05:42:35;;;;;;;14.68;4.30;;;10.70;99.90;;;;;;6248712;22;20103;-85
2022/10/08 05:45:01;;;;;;;11.02;3.92;;;10.70;99.90;;;;;;6247799;22;20026;-85
2022/10/08 05:47:26;;;;;;;13.57;4.25;;;10.70;99.90;;;;;;6275753;22;20011;-86
2022/10/08 05:49:52;;;;;;;12.35;4.93;;;11.60;99.90;;;;;;6248891;22;20020;-85
2022/10/08 05:52:18;;;;;;;13.98;4.20;;;10.60;99.90;;;;;;6274961;22;20375;-85
2022/10/08 05:54:43;;;;;;;16.05;5.53;;;10.60;99.90;;;;;;6248609;22;20099;-85
2022/10/08 05:57:09;;;;;;;12.45;3.90;;;11.40;99.90;;;;;;6248170;22;20061;-86
2022/10/08 05:59:34;;;;;;;12.85;4.20;;;10.60;99.90;;;;;;6247289;22;20016;-85
2022/10/08 06:02:00;;;;;;;15.55;4.05;;;10.60;99.90;;;;;;6248528;22;20016;-85
2022/10/08 06:04:26;;;;;;;12.00;3.75;;;10.50;99.90;;;;;;6276010;22;20016;-83
2022/10/08 06:06:51;;;;;;;12.77;3.95;;;10.50;99.90;;;;;;6247450;22;20020;-83
2022/10/08 06:09:22;;;;;;;13.07;3.97;;;10.40;99.90;;;;;;6275669;22;20011;-82
2022/10/08 06:11:48;;;;;;;14.02;3.90;;;10.40;99.90;;;;;;6248762;22;20090;-83
2022/10/08 06:14:19;;;;;;;11.60;3.65;;;11.20;99.90;;;;;;6247014;22;20026;-82
2022/10/08 06:16:45;;;;;;;10.73;3.47;;;10.30;99.90;;;;;;6276415;22;20022;-83
2022/10/08 06:19:10;;;;;;;13.65;3.58;;;10.30;99.90;;;;;;6275193;22;20016;-82
2022/10/08 06:21:36;;;;;;;12.68;3.75;;;10.30;99.90;;;;;;6274887;22;20079;-82
2022/10/08 06:24:05;;;;;;;12.32;3.72;;;11.40;99.90;;;;;;6248448;22;20382;-82
2022/10/08 06:26:34;;;;;;;12.38;4.00;;;10.40;99.90;;;;;;6275744;22;20011;-82
2022/10/08 06:28:59;;;;;;;13.23;3.95;;;10.40;99.90;;;;;;6247162;22;20016;-83
2022/10/08 06:31:27;;;;;;;11.68;4.35;;;10.40;99.90;;;;;;6248069;22;20673;-81
2022/10/08 06:33:57;;;;;;;15.95;4.85;;;10.30;99.90;;;;;;6246958;22;20340;-81
2022/10/08 06:36:27;;;;;;;15.73;4.30;;;10.40;99.90;;;;;;6247388;22;20012;-80
2022/10/08 06:39:02;;;;;;;11.68;4.50;;;10.40;99.90;;;;;;6248544;22;20019;-81
2022/10/08 06:41:33;;;;;;;16.05;4.70;;;10.40;99.90;;;;;;6274653;22;20019;-81
2022/10/08 06:43:59;;;;;;;19.27;4.63;;;10.40;99.90;;;;;;6248433;22;20023;-81
2022/10/08 06:46:25;;;;;;;13.75;4.13;;;10.50;99.90;;;;;;6248042;22;20016;-81
2022/10/08 06:48:50;;;;;;;14.60;5.18;;;10.50;99.90;;;;;;6247759;22;20030;-81
2022/10/08 06:51:17;;;;;;;14.98;4.57;;;10.60;99.90;;;;;;6248495;22;20023;-80
2022/10/08 06:53:44;;;;;;;12.10;4.78;;;10.60;99.90;;;;;;6248954;22;20065;-80
2022/10/08 06:56:16;;;;;;;13.27;4.30;;;10.80;99.90;;;;;;6216873;23;20087;-80
2022/10/08 06:58:43;;;;;;;13.00;4.60;;;10.90;99.90;;;;;;6218424;23;20460;-81
2022/10/08 07:01:21;;;;;;;15.15;5.00;;;10.90;99.90;;;;;;6244780;23;20016;-80
2022/10/08 07:03:53;;;;;;;17.15;4.68;;;10.90;99.90;;;;;;6217150;23;20020;-81
2022/10/08 07:06:19;;;;;;;14.50;4.80;;;10.90;99.90;;;;;;6217321;23;20091;-80
2022/10/08 07:08:45;;;;;;;14.40;4.30;;;10.80;99.90;;;;;;6244456;23;20478;-81
2022/10/08 07:11:13;;;;;;;11.60;4.70;;;10.90;99.90;;;;;;6217266;23;20016;-81
2022/10/08 07:13:39;;;;;;;23.30;5.15;;;10.80;99.90;;;;;;6219590;23;20016;-81
2022/10/08 07:16:06;;;;;;;11.90;4.22;;;10.80;99.90;;;;;;6219693;23;20059;-81
2022/10/08 07:18:33;;;;;;;14.98;4.93;;;10.80;99.90;;;;;;6218374;23;20027;-83
2022/10/08 07:20:59;;;;;;;15.73;5.00;;;10.90;99.90;;;;;;6246546;23;20023;-83
2022/10/08 07:23:25;;;;;;;14.38;4.53;;;10.90;99.90;;;;;;6245476;23;20013;-81
2022/10/08 07:25:59;;;;;;;17.10;5.50;;;11.00;99.90;;;;;;6246638;23;20314;-81
2022/10/08 07:28:26;;;;;;;13.32;4.97;;;11.00;99.90;;;;;;6219144;23;20028;-81
2022/10/08 07:30:52;;;;;;;13.68;4.93;;;11.40;99.90;;;;;;6218426;23;20460;-81
2022/10/08 07:33:18;;;;;;;15.00;5.20;;;11.10;99.90;;;;;;6219266;23;20027;-81
2022/10/08 07:35:43;;;;;;;15.25;4.90;;;11.10;99.90;;;;;;6246383;23;20023;-81
2022/10/08 07:38:09;;;;;;;13.95;4.80;;;11.30;99.90;;;;;;6245359;23;20453;-81
2022/10/08 07:40:35;;;;;;;17.25;5.45;;;11.30;99.90;;;;;;6219010;23;20022;-81
2022/10/08 07:43:01;;;;;;;13.10;4.68;;;11.40;99.90;;;;;;6246190;23;20020;-81
2022/10/08 07:45:27;;;;;;;13.95;4.63;;;11.50;99.90;;;;;;6217708;23;20128;-81
2022/10/08 07:47:52;;;;;;;10.70;4.22;;;11.40;99.90;;;;;;6219455;23;20048;-81
2022/10/08 07:50:18;;;;;;;15.32;5.13;;;11.40;99.90;;;;;;6218734;23;20092;-81
2022/10/08 07:52:43;;;;;;;13.40;4.50;;;11.50;99.90;;;;;;6245472;23;20462;-83
2022/10/08 07:55:09;;;;;;;13.55;4.63;;;11.60;99.90;;;;;;6231371;23;20012;-82
2022/10/08 07:57:34;;;;;;;15.68;4.63;;;12.30;99.90;;;;;;6244397;23;20062;-82
2022/10/08 08:00:00;;;;;;;15.68;4.68;;;11.70;99.90;;;;;;6245761;23;20046;-83
2022/10/08 08:02:26;;;;;;;13.02;4.82;;;11.80;99.90;;;;;;6244246;23;20503;-83
2022/10/08 08:04:51;;;;;;;12.35;4.25;;;11.90;99.90;;;;;;6244316;23;20012;-83
2022/10/08 08:07:17;;;;;;;13.45;4.10;;;11.90;99.90;;;;;;6243088;23;20020;-82
2022/10/08 08:09:43;;;;;;;12.88;4.15;;;11.80;99.90;;;;;;6244379;23;20020;-83
2022/10/08 08:12:08;;;;;;;13.05;4.28;;;11.80;99.90;;;;;;6246037;23;20016;-82
2022/10/08 08:14:34;;;;;;;13.77;4.40;;;11.80;99.90;;;;;;6243242;23;20020;-83
2022/10/08 08:16:59;;;;;;;16.02;4.00;;;11.90;99.90;;;;;;6244483;23;20017;-82
2022/10/08 08:19:26;;;;;;;17.40;4.68;;;11.90;99.90;;;;;;6244182;23;20523;-82
2022/10/08 08:21:51;;;;;;;16.48;4.57;;;12.00;99.90;;;;;;6243267;23;20536;-83
2022/10/08 08:24:17;;;;;;;11.05;3.25;;;12.50;99.90;;;;;;6245997;23;20040;-82
2022/10/08 08:26:43;;;;;;;12.10;3.40;;;12.10;99.90;;;;;;6243389;23;20359;-83
2022/10/08 08:29:15;;;;;;;10.70;3.55;;;12.20;99.90;;;;;;6244126;23;20502;-83
2022/10/08 08:31:46;;;;;;;12.77;3.03;;;12.20;99.90;;;;;;6244273;22;20468;-81
2022/10/08 08:34:14;;;;;;;13.75;3.42;;;12.20;99.90;;;;;;6242703;23;20444;-82
2022/10/08 08:36:42;;;;;;;14.82;3.20;;;12.30;99.90;;;;;;6244303;23;20090;-82
2022/10/08 08:42:10;;;;;;;12.85;2.72;;;12.50;99.90;;;;;;6241366;22;20236;-80
2022/10/08 08:44:54;;;;;;;10.15;2.50;;;13.80;99.90;;;;;;6276433;22;20074;-80
2022/10/08 08:47:39;;;;;;;10.85;3.03;;;13.20;99.90;;;;;;6248604;22;20350;-82
2022/10/08 08:50:07;;;;;;;11.95;2.97;;;12.80;99.90;;;;;;6248319;22;20405;-82
2022/10/08 08:52:39;;;;;;;11.05;2.50;;;12.80;99.90;;;;;;6276863;22;20019;-82
2022/10/08 08:55:16;;;;;;;10.27;2.40;;;12.80;99.90;;;;;;6248218;22;20060;-82
2022/10/08 08:57:50;;;;;;;8.75;2.05;;;12.90;99.90;;;;;;6248905;22;20011;-83
2022/10/08 09:00:18;;;;;;;9.18;2.42;;;13.00;99.90;;;;;;6248720;22;20352;-83
2022/10/08 09:02:56;;;;;;;10.98;2.50;;;13.10;99.90;;;;;;6248284;22;20325;-82
2022/10/08 09:05:24;;;;;;;11.27;2.05;;;13.20;99.90;;;;;;6248459;22;20039;-81
2022/10/08 09:08:12;;;;;;;11.38;2.25;;;13.30;99.90;;;;;;6248946;22;20309;-82
2022/10/08 09:10:47;;;;;;;8.50;1.80;;;13.30;99.90;;;;;;6224039;22;20015;-81
2022/10/08 09:13:36;;;;;;;7.70;1.88;;;13.40;99.90;;;;;;6248109;22;20445;-81
2022/10/08 09:16:02;;;;;;;9.00;2.00;;;13.40;99.90;;;;;;6248272;22;20016;-81
2022/10/08 09:18:28;;;;;;;12.10;1.83;;;13.50;99.90;;;;;;6276025;22;20019;-82
2022/10/08 09:20:53;;;;;;;13.00;2.97;;;13.50;99.90;;;;;;6248959;22;20064;-81
2022/10/08 09:23:22;;;;;;;8.15;1.67;;;13.60;99.90;;;;;;6274649;22;20073;-81
2022/10/08 09:25:59;;;;;;;8.70;1.90;;;13.50;99.90;;;;;;6248883;22;20012;-80
2022/10/08 09:28:41;;;;;;;8.48;1.90;;;13.70;99.90;;;;;;6248199;22;20065;-81
2022/10/08 09:31:18;;;;;;;8.35;1.88;;;13.80;99.90;;;;;;6247497;22;20012;-81
2022/10/08 09:33:44;;;;;;;7.40;1.77;;;13.90;99.90;;;;;;6276270;22;20015;-81
2022/10/08 09:36:11;;;;;;;8.52;1.60;;;13.90;99.90;;;;;;6248447;22;20016;-80
2022/10/08 09:38:40;;;;;;;11.32;2.03;;;13.80;99.90;;;;;;6247991;22;20016;-80
2022/10/08 09:41:18;;;;;;;12.50;2.05;;;13.40;99.90;;;;;;6248271;22;20042;-80
2022/10/08 09:44:03;;;;;;;8.35;1.65;;;13.70;99.90;;;;;;6275671;22;20077;-81
2022/10/08 09:46:32;;;;;;;7.35;1.65;;;13.70;99.90;;;;;;6248369;22;20022;-81
2022/10/08 09:49:23;;;;;;;6.93;1.80;;;13.70;99.90;;;;;;6248273;22;20020;-81
2022/10/08 09:51:49;;;;;;;7.18;1.67;;;13.70;99.90;;;;;;6247173;22;20011;-81
2022/10/08 09:54:22;;;;;;;8.35;1.63;;;13.90;99.90;;;;;;6272401;22;20020;-81
2022/10/08 09:57:14;;;;;;;6.18;1.55;;;14.60;99.90;;;;;;6275672;22;20328;-82
2022/10/08 09:59:53;;;;;;;7.50;1.83;;;14.00;99.90;;;;;;6274676;22;20012;-82
2022/10/08 10:02:30;;;;;;;6.93;1.80;;;14.30;99.90;;;;;;6246601;22;20023;-84
2022/10/08 10:04:57;;;;;;;7.60;1.70;;;14.50;99.90;;;;;;6275186;22;20008;-82
2022/10/08 10:07:44;;;;;;;6.07;1.60;;;14.70;99.90;;;;;;6245459;22;20065;-81
2022/10/08 10:10:15;;;;;;;8.52;1.90;;;16.30;99.90;;;;;;6212549;23;20024;-82
2022/10/08 10:12:44;;;;;;;7.68;1.63;;;15.20;99.90;;;;;;6212149;23;20017;-82
2022/10/08 10:15:14;;;;;;;6.72;1.65;;;16.50;99.90;;;;;;6212575;23;20027;-83
2022/10/08 10:17:51;;;;;;;8.13;2.08;;;16.20;99.90;;;;;;6213146;23;20017;-82
2022/10/08 10:20:42;;;;;;;6.25;1.67;;;15.60;99.90;;;;;;6212896;23;20013;-82
2022/10/08 10:23:12;;;;;;;6.70;1.70;;;15.60;99.90;;;;;;6212491;23;20143;-82
2022/10/08 10:25:44;;;;;;;5.82;1.67;;;15.70;99.90;;;;;;6213392;23;20408;-82
2022/10/08 10:28:18;;;;;;;9.77;1.70;;;15.90;99.90;;;;;;6212031;23;20048;-83
2022/10/08 10:30:48;;;;;;;6.10;1.98;;;16.10;99.90;;;;;;6215064;23;20372;-83
2022/10/08 10:33:19;;;;;;;10.38;1.92;;;16.40;99.90;;;;;;6213794;23;20024;-82
2022/10/08 10:35:59;;;;;;;9.02;1.65;;;15.50;99.90;;;;;;6217493;22;20004;-85
2022/10/08 10:38:27;;;;;;;5.22;1.10;;;14.30;99.90;;;;;;6242911;23;20024;-83
2022/10/08 10:41:16;;;;;;;5.97;1.25;;;13.40;99.90;;;;;;6242387;23;20044;-84
2022/10/08 10:44:10;;;;;;;6.28;1.23;;;12.20;99.90;;;;;;6243311;23;20016;-82
2022/10/08 10:46:42;;;;;;;9.13;2.20;;;11.40;99.90;;;;;;6239727;23;20020;-82
2022/10/08 10:49:23;;;;;;;4.32;1.23;;;11.10;99.90;;;;;;6244243;23;20012;-81
2022/10/08 10:52:07;;;;;;;5.95;1.60;;;11.00;99.90;;;;;;6247012;22;20130;-82
2022/10/08 10:54:55;;;;;;;5.90;1.50;;;10.90;99.90;;;;;;6246323;23;20020;-82
2022/10/08 10:57:56;;;;;;;7.20;1.70;;;10.90;99.90;;;;;;6246303;22;20483;-82
2022/10/08 11:00:55;;;;;;;9.38;2.05;;;10.80;99.90;;;;;;6211397;23;20107;-82
2022/10/08 11:03:34;;;;;;;9.57;1.98;;;10.90;99.90;;;;;;6244049;23;20107;-82
2022/10/08 11:06:15;;;;;;;9.90;2.30;;;11.30;99.90;;;;;;6245332;23;20023;-82
2022/10/08 11:11:21;;;;;;;5.32;1.52;;;12.10;99.90;;;;;;6276979;22;20051;-82
2022/10/08 11:14:24;;;;;;;7.60;1.60;;;12.20;99.90;;;;;;6243574;22;20113;-80
2022/10/08 11:16:49;;;;;;;8.05;1.92;;;12.10;99.90;;;;;;6244521;23;20034;-82
2022/10/08 11:19:38;;;;;;;10.52;1.73;;;12.10;99.90;;;;;;6246671;23;20051;-81
2022/10/08 11:22:11;;;;;;;8.75;2.38;;;12.50;99.90;;;;;;6245374;23;20502;-81
2022/10/08 11:24:48;;;;;;;6.82;1.75;;;12.80;99.90;;;;;;6217748;23;20017;-81
2022/10/08 11:27:44;;;;;;;9.82;1.83;;;13.10;99.90;;;;;;6244207;23;20031;-81
2022/10/08 11:30:17;;;;;;;8.73;2.30;;;13.30;99.90;;;;;;6243702;23;20095;-81
2022/10/08 11:32:52;;;;;;;11.48;2.40;;;13.50;99.90;;;;;;6245238;23;20436;-81
2022/10/08 11:35:40;;;;;;;9.40;1.90;;;13.60;99.90;;;;;;6244416;23;20016;-81
2022/10/08 11:38:28;;;;;;;10.85;2.17;;;13.80;99.90;;;;;;6243944;23;20016;-81
2022/10/08 11:41:15;;;;;;;9.18;1.70;;;14.40;99.90;;;;;;6246905;23;20008;-81
2022/10/08 11:43:53;;;;;;;7.93;1.48;;;14.10;99.90;;;;;;6246059;23;20023;-81
2022/10/08 11:46:19;;;;;;;7.60;1.50;;;14.10;99.90;;;;;;6244902;23;20016;-81
2022/10/08 11:48:45;;;;;;;7.55;1.60;;;14.20;99.90;;;;;;6246976;23;20024;-81
2022/10/08 11:51:20;;;;;;;5.05;1.58;;;14.30;99.90;;;;;;6243717;23;20012;-81
2022/10/08 11:54:14;;;;;;;5.03;1.50;;;14.50;99.90;;;;;;6246210;23;20020;-81
2022/10/08 11:56:42;;;;;;;10.60;1.80;;;14.10;99.90;;;;;;6244541;23;20012;-81
2022/10/08 11:59:27;;;;;;;6.78;1.40;;;14.70;99.90;;;;;;6245138;23;20087;-82
2022/10/08 12:02:06;;;;;;;6.20;1.67;;;14.60;99.90;;;;;;6244906;23;20016;-81
2022/10/08 12:04:41;;;;;;;7.60;1.50;;;14.10;99.90;;;;;;6244556;23;20023;-82
2022/10/08 12:07:20;;;;;;;8.48;2.13;;;13.80;99.90;;;;;;6245930;23;20012;-83
2022/10/08 12:10:03;;;;;;;7.28;1.90;;;13.50;99.90;;;;;;6246709;23;20020;-82
2022/10/08 12:12:48;;;;;;;9.63;2.00;;;13.20;99.90;;;;;;6243273;23;20016;-82
2022/10/08 12:15:22;;;;;;;6.80;1.50;;;12.90;99.90;;;;;;6266573;22;20408;-82
2022/10/08 12:24:51;;;;;;;6.32;1.42;;;13.10;99.90;;;;;;6276576;22;20085;-82
2022/10/08 12:27:36;;;;;;;6.77;1.40;;;13.50;99.90;;;;;;6248261;22;20028;-82
2022/10/08 12:30:08;;;;;;;9.00;1.70;;;13.90;99.90;;;;;;6249893;22;20035;-82
2022/10/08 12:32:43;;;;;;;7.50;1.70;;;14.00;99.90;;;;;;6249446;22;20012;-82
2022/10/08 12:35:27;;;;;;;7.03;1.80;;;14.80;99.90;;;;;;6275559;22;20023;-81
2022/10/08 12:38:12;;;;;;;8.35;1.80;;;14.40;99.90;;;;;;6275449;22;20012;-82
2022/10/08 12:40:50;;;;;;;9.23;1.75;;;14.50;99.90;;;;;;6248607;22;20523;-82
2022/10/08 12:43:37;;;;;;;7.25;2.00;;;14.50;99.90;;;;;;6249500;22;20022;-82
2022/10/08 12:46:24;;;;;;;8.45;1.70;;;14.50;99.90;;;;;;6249328;22;20027;-82
2022/10/08 12:49:19;;;;;;;7.75;1.70;;;14.50;99.90;;;;;;6248415;22;20019;-82
2022/10/08 12:51:50;;;;;;;6.82;1.50;;;14.60;99.90;;;;;;6249660;22;20023;-82
2022/10/08 12:54:22;;;;;;;7.75;1.73;;;14.70;99.90;;;;;;6275307;22;20077;-82
2022/10/08 12:56:50;;;;;;;7.57;1.65;;;14.80;99.90;;;;;;6249441;22;20019;-82
2022/10/08 12:59:17;;;;;;;5.15;1.48;;;14.70;99.90;;;;;;6248978;22;20065;-83
2022/10/08 13:01:43;;;;;;;7.25;1.70;;;15.70;99.90;;;;;;6275734;22;20058;-82
2022/10/08 13:04:18;;;;;;;7.05;1.50;;;14.60;99.90;;;;;;6248963;22;20069;-82
2022/10/08 13:06:45;;;;;;;6.38;1.40;;;14.70;99.90;;;;;;6249318;22;20023;-83
2022/10/08 13:09:38;;;;;;;8.95;1.67;;;14.80;99.90;;;;;;6274645;22;20054;-82
2022/10/08 13:12:04;;;;;;;10.00;1.40;;;15.20;99.90;;;;;;6249341;22;20336;-83
2022/10/08 13:14:37;;;;;;;9.23;1.70;;;14.70;99.90;;;;;;6276401;22;20017;-82